Main page
METAR-TAF:

METAR-TAF

Airports :

Aigen im Ennstal, Austria

latitude: 47-32N, longitude: 014-08E, elevation: 638 m

METAR: missing

Time: 07:03 (05:03 UTC)

Forecast

The report was made 17 hours and 48 minutes ago, at 11:15 UTC
Forecast valid from 19 at 12 UTC to 19 at 21 UTC
Wind 3 kt from variable directions
Visibility 10 km or more
Broken clouds at a height of 30000 ft
Temporary
from 19 at 12 UTC to 19 at 18 UTC
Wind 7 kt from the East/Northeast
Few clouds at a height of 6000 ft
Broken clouds at a height of 30000 ft

TAF: LOXA 191115Z 1912/1921 VRB03KT 9999 BKN300 TEMPO 1912/1918 06007KT FEW060 BKN300

Weather observations and forecasts of more than 4000 airports (METAR and TAF reports).

The available stations are represented by yellow and red dots on the map.

Hover mouse over dot to see the name of the station.

Then click to see weather observations and forecasts.

To change the map : click on the green buttons with a black cross to zoom in, on the green button with a dash to zoom out, or on the green arrows for adjacent maps.


METAR-TAF: